Pilar de Goias, Brazil
Current Conditions -  °F | °C
As of 9:00 PM on Thursday 18 Dec 2014 (Local Time) from SBAN Reporting Station
Light Rain Light Rain  
Wind Chill: 68°   Ceiling: 10000
Heat Index: 68°   Visibility: 5mi
Dew Point: 64°   Wind: 2mph
Humidity: 88%   Direction: 300°WNW
Pressure: 30"   Gusts: NA
Location:  14.76°S, 49.58°W
Report Text: SBAN 182300Z 30002KT 8000 -RA SCT015 OVC100 20/18 Q1016
Loading
Personal Weather Stations






























Interactive Weather Map New forecast layout! Learn more

10-Day Weather Forecast

Advertisements
Track Severe Weather on mobile